sensor_id;sensor_type;location;lat;lon;timestamp;P1;durP1;ratioP1;P2;durP2;ratioP2
10293;SDS011;5192;50.328;7.610;2023-09-30T00:01:26;18.27;;;11.20;;
10293;SDS011;5192;50.328;7.610;2023-09-30T00:03:53;15.20;;;10.17;;
10293;SDS011;5192;50.328;7.610;2023-09-30T00:06:20;20.17;;;10.83;;
10293;SDS011;5192;50.328;7.610;2023-09-30T00:08:47;13.33;;;10.73;;
10293;SDS011;5192;50.328;7.610;2023-09-30T00:11:16;15.80;;;10.50;;
10293;SDS011;5192;50.328;7.610;2023-09-30T00:13:43;20.10;;;11.50;;
10293;SDS011;5192;50.328;7.610;2023-09-30T00:16:11;19.10;;;11.07;;
10293;SDS011;5192;50.328;7.610;2023-09-30T00:18:39;19.83;;;11.30;;
10293;SDS011;5192;50.328;7.610;2023-09-30T00:21:05;16.17;;;10.90;;
10293;SDS011;5192;50.328;7.610;2023-09-30T00:23:31;17.50;;;11.50;;
10293;SDS011;5192;50.328;7.610;2023-09-30T00:25:59;22.50;;;11.40;;
10293;SDS011;5192;50.328;7.610;2023-09-30T00:28:29;19.30;;;12.77;;
10293;SDS011;5192;50.328;7.610;2023-09-30T00:30:55;17.87;;;11.93;;
10293;SDS011;5192;50.328;7.610;2023-09-30T00:33:22;22.10;;;12.80;;
10293;SDS011;5192;50.328;7.610;2023-09-30T00:35:49;19.37;;;12.37;;
10293;SDS011;5192;50.328;7.610;2023-09-30T00:38:15;22.60;;;13.67;;
10293;SDS011;5192;50.328;7.610;2023-09-30T00:40:49;19.03;;;12.60;;
10293;SDS011;5192;50.328;7.610;2023-09-30T00:43:19;19.97;;;12.47;;
10293;SDS011;5192;50.328;7.610;2023-09-30T00:45:48;17.73;;;12.60;;
10293;SDS011;5192;50.328;7.610;2023-09-30T00:48:18;19.90;;;13.73;;
10293;SDS011;5192;50.328;7.610;2023-09-30T00:50:44;20.10;;;12.87;;
10293;SDS011;5192;50.328;7.610;2023-09-30T00:53:11;18.40;;;12.27;;
10293;SDS011;5192;50.328;7.610;2023-09-30T00:55:39;19.50;;;11.97;;
10293;SDS011;5192;50.328;7.610;2023-09-30T00:58:06;19.77;;;12.47;;
10293;SDS011;5192;50.328;7.610;2023-09-30T01:00:32;17.83;;;11.23;;
10293;SDS011;5192;50.328;7.610;2023-09-30T01:03:01;16.97;;;11.77;;
10293;SDS011;5192;50.328;7.610;2023-09-30T01:05:31;21.80;;;12.63;;
10293;SDS011;5192;50.328;7.610;2023-09-30T01:07:58;21.00;;;12.60;;
10293;SDS011;5192;50.328;7.610;2023-09-30T01:10:27;18.03;;;13.07;;
10293;SDS011;5192;50.328;7.610;2023-09-30T01:12:55;21.20;;;11.73;;
10293;SDS011;5192;50.328;7.610;2023-09-30T01:15:21;20.97;;;12.83;;
10293;SDS011;5192;50.328;7.610;2023-09-30T01:17:49;18.50;;;12.13;;
10293;SDS011;5192;50.328;7.610;2023-09-30T01:20:36;17.67;;;12.47;;
10293;SDS011;5192;50.328;7.610;2023-09-30T01:23:02;25.43;;;12.97;;
10293;SDS011;5192;50.328;7.610;2023-09-30T01:25:30;18.93;;;12.27;;
10293;SDS011;5192;50.328;7.610;2023-09-30T01:27:57;22.63;;;13.27;;
10293;SDS011;5192;50.328;7.610;2023-09-30T01:30:29;20.43;;;12.70;;
10293;SDS011;5192;50.328;7.610;2023-09-30T01:33:00;20.30;;;12.93;;
10293;SDS011;5192;50.328;7.610;2023-09-30T01:35:26;18.37;;;12.53;;
10293;SDS011;5192;50.328;7.610;2023-09-30T01:37:53;18.07;;;13.03;;
10293;SDS011;5192;50.328;7.610;2023-09-30T01:40:20;20.47;;;12.07;;
10293;SDS011;5192;50.328;7.610;2023-09-30T01:42:47;24.23;;;12.80;;
10293;SDS011;5192;50.328;7.610;2023-09-30T01:45:14;23.00;;;13.43;;
10293;SDS011;5192;50.328;7.610;2023-09-30T01:47:42;20.20;;;13.20;;
10293;SDS011;5192;50.328;7.610;2023-09-30T01:50:09;22.53;;;12.90;;
10293;SDS011;5192;50.328;7.610;2023-09-30T01:52:36;23.40;;;13.50;;
10293;SDS011;5192;50.328;7.610;2023-09-30T01:55:03;24.23;;;12.97;;
10293;SDS011;5192;50.328;7.610;2023-09-30T01:57:31;25.47;;;14.87;;
10293;SDS011;5192;50.328;7.610;2023-09-30T01:59:59;20.07;;;13.33;;
10293;SDS011;5192;50.328;7.610;2023-09-30T02:02:31;24.77;;;13.77;;
10293;SDS011;5192;50.328;7.610;2023-09-30T02:04:57;26.03;;;14.77;;
10293;SDS011;5192;50.328;7.610;2023-09-30T02:07:25;29.80;;;14.57;;
10293;SDS011;5192;50.328;7.610;2023-09-30T02:09:51;22.83;;;14.43;;
10293;SDS011;5192;50.328;7.610;2023-09-30T02:12:19;22.43;;;14.60;;
10293;SDS011;5192;50.328;7.610;2023-09-30T02:14:46;24.37;;;14.33;;
10293;SDS011;5192;50.328;7.610;2023-09-30T02:17:13;26.50;;;15.07;;
10293;SDS011;5192;50.328;7.610;2023-09-30T02:19:41;23.80;;;13.83;;
10293;SDS011;5192;50.328;7.610;2023-09-30T02:22:07;23.60;;;14.27;;
10293;SDS011;5192;50.328;7.610;2023-09-30T02:24:36;22.33;;;14.40;;
10293;SDS011;5192;50.328;7.610;2023-09-30T02:27:03;21.70;;;14.33;;
10293;SDS011;5192;50.328;7.610;2023-09-30T02:29:30;20.17;;;13.70;;
10293;SDS011;5192;50.328;7.610;2023-09-30T02:31:58;23.93;;;14.10;;
10293;SDS011;5192;50.328;7.610;2023-09-30T02:34:23;25.57;;;14.27;;
10293;SDS011;5192;50.328;7.610;2023-09-30T02:36:50;23.47;;;14.07;;
10293;SDS011;5192;50.328;7.610;2023-09-30T02:39:21;21.60;;;14.67;;
10293;SDS011;5192;50.328;7.610;2023-09-30T02:41:47;21.53;;;14.87;;
10293;SDS011;5192;50.328;7.610;2023-09-30T02:44:16;21.07;;;14.53;;
10293;SDS011;5192;50.328;7.610;2023-09-30T02:46:43;22.47;;;14.80;;
10293;SDS011;5192;50.328;7.610;2023-09-30T02:49:10;29.30;;;15.23;;
10293;SDS011;5192;50.328;7.610;2023-09-30T02:51:36;26.07;;;15.23;;
10293;SDS011;5192;50.328;7.610;2023-09-30T02:54:04;23.83;;;15.30;;
10293;SDS011;5192;50.328;7.610;2023-09-30T02:56:30;24.63;;;16.27;;
10293;SDS011;5192;50.328;7.610;2023-09-30T02:58:56;28.40;;;16.93;;
10293;SDS011;5192;50.328;7.610;2023-09-30T03:01:25;32.47;;;16.50;;
10293;SDS011;5192;50.328;7.610;2023-09-30T03:03:53;24.03;;;15.93;;
10293;SDS011;5192;50.328;7.610;2023-09-30T03:06:30;27.67;;;16.50;;
10293;SDS011;5192;50.328;7.610;2023-09-30T03:08:58;23.40;;;16.13;;
10293;SDS011;5192;50.328;7.610;2023-09-30T03:11:25;24.20;;;15.43;;
10293;SDS011;5192;50.328;7.610;2023-09-30T03:13:53;24.27;;;16.33;;
10293;SDS011;5192;50.328;7.610;2023-09-30T03:16:20;23.43;;;15.97;;
10293;SDS011;5192;50.328;7.610;2023-09-30T03:18:47;30.13;;;16.93;;
10293;SDS011;5192;50.328;7.610;2023-09-30T03:21:15;24.03;;;15.67;;
10293;SDS011;5192;50.328;7.610;2023-09-30T03:23:43;27.07;;;17.40;;
10293;SDS011;5192;50.328;7.610;2023-09-30T03:26:08;25.10;;;16.77;;
10293;SDS011;5192;50.328;7.610;2023-09-30T03:28:37;26.33;;;17.10;;
10293;SDS011;5192;50.328;7.610;2023-09-30T03:31:04;27.97;;;17.43;;
10293;SDS011;5192;50.328;7.610;2023-09-30T03:33:32;30.43;;;17.63;;
10293;SDS011;5192;50.328;7.610;2023-09-30T03:36:00;27.33;;;17.40;;
10293;SDS011;5192;50.328;7.610;2023-09-30T03:38:27;26.33;;;17.00;;
10293;SDS011;5192;50.328;7.610;2023-09-30T03:40:55;27.83;;;17.73;;
10293;SDS011;5192;50.328;7.610;2023-09-30T03:43:24;31.83;;;18.10;;
10293;SDS011;5192;50.328;7.610;2023-09-30T03:45:53;28.10;;;18.43;;
10293;SDS011;5192;50.328;7.610;2023-09-30T03:48:23;29.03;;;17.73;;
10293;SDS011;5192;50.328;7.610;2023-09-30T03:50:49;29.40;;;17.33;;
10293;SDS011;5192;50.328;7.610;2023-09-30T03:53:19;24.80;;;16.93;;
10293;SDS011;5192;50.328;7.610;2023-09-30T03:55:47;30.87;;;18.00;;
10293;SDS011;5192;50.328;7.610;2023-09-30T03:58:14;25.10;;;17.10;;
10293;SDS011;5192;50.328;7.610;2023-09-30T04:00:42;28.10;;;17.73;;
10293;SDS011;5192;50.328;7.610;2023-09-30T04:03:11;29.53;;;18.47;;
10293;SDS011;5192;50.328;7.610;2023-09-30T04:05:39;28.80;;;17.63;;
10293;SDS011;5192;50.328;7.610;2023-09-30T04:08:07;29.47;;;18.07;;
10293;SDS011;5192;50.328;7.610;2023-09-30T04:10:35;27.37;;;17.87;;
10293;SDS011;5192;50.328;7.610;2023-09-30T04:13:00;29.77;;;17.83;;
10293;SDS011;5192;50.328;7.610;2023-09-30T04:15:27;28.33;;;18.00;;
10293;SDS011;5192;50.328;7.610;2023-09-30T04:17:57;29.67;;;18.57;;
10293;SDS011;5192;50.328;7.610;2023-09-30T04:20:23;30.37;;;17.70;;
10293;SDS011;5192;50.328;7.610;2023-09-30T04:22:53;27.93;;;17.27;;
10293;SDS011;5192;50.328;7.610;2023-09-30T04:25:24;26.93;;;16.47;;
10293;SDS011;5192;50.328;7.610;2023-09-30T04:27:52;26.00;;;16.80;;
10293;SDS011;5192;50.328;7.610;2023-09-30T04:30:20;28.20;;;16.77;;
10293;SDS011;5192;50.328;7.610;2023-09-30T04:32:49;28.50;;;16.97;;
10293;SDS011;5192;50.328;7.610;2023-09-30T04:35:16;28.87;;;17.50;;
10293;SDS011;5192;50.328;7.610;2023-09-30T04:37:44;30.60;;;17.43;;
10293;SDS011;5192;50.328;7.610;2023-09-30T04:40:12;25.17;;;16.00;;
10293;SDS011;5192;50.328;7.610;2023-09-30T04:42:42;28.40;;;17.93;;
10293;SDS011;5192;50.328;7.610;2023-09-30T04:45:10;29.73;;;17.60;;
10293;SDS011;5192;50.328;7.610;2023-09-30T04:47:50;30.77;;;17.47;;
10293;SDS011;5192;50.328;7.610;2023-09-30T04:50:23;33.83;;;19.70;;
10293;SDS011;5192;50.328;7.610;2023-09-30T04:52:51;33.10;;;17.83;;
10293;SDS011;5192;50.328;7.610;2023-09-30T04:55:16;32.10;;;17.40;;
10293;SDS011;5192;50.328;7.610;2023-09-30T04:57:45;27.93;;;17.37;;
10293;SDS011;5192;50.328;7.610;2023-09-30T05:00:18;26.17;;;15.93;;
10293;SDS011;5192;50.328;7.610;2023-09-30T05:02:52;31.37;;;16.93;;
10293;SDS011;5192;50.328;7.610;2023-09-30T05:05:18;26.90;;;15.73;;
10293;SDS011;5192;50.328;7.610;2023-09-30T05:07:46;26.07;;;16.13;;
10293;SDS011;5192;50.328;7.610;2023-09-30T05:10:13;25.10;;;15.63;;
10293;SDS011;5192;50.328;7.610;2023-09-30T05:12:43;28.10;;;16.30;;
10293;SDS011;5192;50.328;7.610;2023-09-30T05:15:15;30.90;;;16.77;;
10293;SDS011;5192;50.328;7.610;2023-09-30T05:17:42;35.60;;;17.40;;
10293;SDS011;5192;50.328;7.610;2023-09-30T05:20:11;31.90;;;16.37;;
10293;SDS011;5192;50.328;7.610;2023-09-30T05:22:40;32.07;;;17.80;;
10293;SDS011;5192;50.328;7.610;2023-09-30T05:25:09;31.17;;;17.77;;
10293;SDS011;5192;50.328;7.610;2023-09-30T05:27:35;29.30;;;16.77;;
10293;SDS011;5192;50.328;7.610;2023-09-30T05:30:03;29.80;;;16.67;;
10293;SDS011;5192;50.328;7.610;2023-09-30T05:32:34;29.90;;;16.90;;
10293;SDS011;5192;50.328;7.610;2023-09-30T05:35:05;30.33;;;16.83;;
10293;SDS011;5192;50.328;7.610;2023-09-30T05:37:41;32.07;;;16.87;;
10293;SDS011;5192;50.328;7.610;2023-09-30T05:40:09;31.37;;;16.97;;
10293;SDS011;5192;50.328;7.610;2023-09-30T05:43:05;26.50;;;15.13;;
10293;SDS011;5192;50.328;7.610;2023-09-30T05:45:32;27.47;;;15.67;;
10293;SDS011;5192;50.328;7.610;2023-09-30T05:48:03;30.30;;;16.50;;
10293;SDS011;5192;50.328;7.610;2023-09-30T05:50:33;26.10;;;16.20;;
10293;SDS011;5192;50.328;7.610;2023-09-30T05:53:03;27.50;;;15.33;;
10293;SDS011;5192;50.328;7.610;2023-09-30T05:55:30;28.67;;;15.03;;
10293;SDS011;5192;50.328;7.610;2023-09-30T05:57:59;27.97;;;15.87;;
10293;SDS011;5192;50.328;7.610;2023-09-30T06:00:26;26.07;;;15.37;;
10293;SDS011;5192;50.328;7.610;2023-09-30T06:03:00;31.67;;;15.87;;
10293;SDS011;5192;50.328;7.610;2023-09-30T06:05:27;24.33;;;14.87;;
10293;SDS011;5192;50.328;7.610;2023-09-30T06:07:56;24.70;;;14.00;;
10293;SDS011;5192;50.328;7.610;2023-09-30T06:10:25;30.20;;;15.10;;
10293;SDS011;5192;50.328;7.610;2023-09-30T06:12:52;27.00;;;15.03;;
10293;SDS011;5192;50.328;7.610;2023-09-30T06:15:24;23.93;;;15.30;;
10293;SDS011;5192;50.328;7.610;2023-09-30T06:17:54;25.43;;;15.37;;
10293;SDS011;5192;50.328;7.610;2023-09-30T06:20:21;30.30;;;18.17;;
10293;SDS011;5192;50.328;7.610;2023-09-30T06:22:52;30.37;;;16.20;;
10293;SDS011;5192;50.328;7.610;2023-09-30T06:25:23;28.47;;;14.67;;
10293;SDS011;5192;50.328;7.610;2023-09-30T06:27:50;34.77;;;17.73;;
10293;SDS011;5192;50.328;7.610;2023-09-30T06:30:16;32.67;;;18.37;;
10293;SDS011;5192;50.328;7.610;2023-09-30T06:32:46;31.40;;;18.20;;
10293;SDS011;5192;50.328;7.610;2023-09-30T06:35:14;32.77;;;17.20;;
10293;SDS011;5192;50.328;7.610;2023-09-30T06:37:40;33.60;;;18.53;;
10293;SDS011;5192;50.328;7.610;2023-09-30T06:40:08;36.43;;;17.50;;
10293;SDS011;5192;50.328;7.610;2023-09-30T06:42:38;35.13;;;19.40;;
10293;SDS011;5192;50.328;7.610;2023-09-30T06:45:08;37.90;;;19.67;;
10293;SDS011;5192;50.328;7.610;2023-09-30T06:47:37;31.47;;;19.53;;
10293;SDS011;5192;50.328;7.610;2023-09-30T06:50:11;34.77;;;20.03;;
10293;SDS011;5192;50.328;7.610;2023-09-30T06:52:43;36.03;;;19.77;;
10293;SDS011;5192;50.328;7.610;2023-09-30T06:55:15;37.83;;;20.67;;
10293;SDS011;5192;50.328;7.610;2023-09-30T06:57:44;42.97;;;20.93;;
10293;SDS011;5192;50.328;7.610;2023-09-30T07:00:12;37.53;;;19.60;;
10293;SDS011;5192;50.328;7.610;2023-09-30T07:02:39;31.73;;;18.20;;
10293;SDS011;5192;50.328;7.610;2023-09-30T07:05:09;28.93;;;18.93;;
10293;SDS011;5192;50.328;7.610;2023-09-30T07:07:39;29.33;;;19.33;;
10293;SDS011;5192;50.328;7.610;2023-09-30T07:10:09;29.37;;;19.73;;
10293;SDS011;5192;50.328;7.610;2023-09-30T07:12:37;35.07;;;19.33;;
10293;SDS011;5192;50.328;7.610;2023-09-30T07:15:06;34.33;;;19.47;;
10293;SDS011;5192;50.328;7.610;2023-09-30T07:17:36;50.00;;;25.87;;
10293;SDS011;5192;50.328;7.610;2023-09-30T07:20:03;32.93;;;19.67;;
10293;SDS011;5192;50.328;7.610;2023-09-30T07:22:32;30.70;;;19.70;;
10293;SDS011;5192;50.328;7.610;2023-09-30T07:25:00;30.50;;;18.17;;
10293;SDS011;5192;50.328;7.610;2023-09-30T07:27:30;25.60;;;17.57;;
10293;SDS011;5192;50.328;7.610;2023-09-30T07:29:56;28.53;;;18.00;;
10293;SDS011;5192;50.328;7.610;2023-09-30T07:32:23;30.43;;;18.27;;
10293;SDS011;5192;50.328;7.610;2023-09-30T07:34:49;28.13;;;17.37;;
10293;SDS011;5192;50.328;7.610;2023-09-30T07:37:16;29.23;;;19.00;;
10293;SDS011;5192;50.328;7.610;2023-09-30T07:39:44;28.80;;;18.73;;
10293;SDS011;5192;50.328;7.610;2023-09-30T07:42:12;31.07;;;18.20;;
10293;SDS011;5192;50.328;7.610;2023-09-30T07:44:39;37.63;;;18.70;;
10293;SDS011;5192;50.328;7.610;2023-09-30T07:47:05;54.47;;;19.20;;
10293;SDS011;5192;50.328;7.610;2023-09-30T07:49:34;26.17;;;17.27;;
10293;SDS011;5192;50.328;7.610;2023-09-30T07:52:04;27.00;;;17.13;;
10293;SDS011;5192;50.328;7.610;2023-09-30T07:54:30;24.97;;;16.07;;
10293;SDS011;5192;50.328;7.610;2023-09-30T07:56:59;25.93;;;16.60;;
10293;SDS011;5192;50.328;7.610;2023-09-30T07:59:26;25.73;;;16.33;;
10293;SDS011;5192;50.328;7.610;2023-09-30T08:01:52;26.67;;;16.77;;
10293;SDS011;5192;50.328;7.610;2023-09-30T08:04:21;25.60;;;16.13;;
10293;SDS011;5192;50.328;7.610;2023-09-30T08:06:48;28.40;;;17.93;;
10293;SDS011;5192;50.328;7.610;2023-09-30T08:09:17;26.57;;;16.67;;
10293;SDS011;5192;50.328;7.610;2023-09-30T08:11:44;23.20;;;16.37;;
10293;SDS011;5192;50.328;7.610;2023-09-30T08:14:10;27.47;;;16.93;;
10293;SDS011;5192;50.328;7.610;2023-09-30T08:16:37;29.93;;;17.63;;
10293;SDS011;5192;50.328;7.610;2023-09-30T08:19:03;22.60;;;17.00;;
10293;SDS011;5192;50.328;7.610;2023-09-30T08:21:29;24.23;;;17.03;;
10293;SDS011;5192;50.328;7.610;2023-09-30T08:23:57;26.83;;;17.13;;
10293;SDS011;5192;50.328;7.610;2023-09-30T08:26:25;28.37;;;17.73;;
10293;SDS011;5192;50.328;7.610;2023-09-30T08:28:53;28.47;;;17.30;;
10293;SDS011;5192;50.328;7.610;2023-09-30T08:31:20;23.73;;;15.57;;
10293;SDS011;5192;50.328;7.610;2023-09-30T08:33:47;29.40;;;17.73;;
10293;SDS011;5192;50.328;7.610;2023-09-30T08:36:15;26.00;;;17.57;;
10293;SDS011;5192;50.328;7.610;2023-09-30T08:38:41;25.33;;;15.73;;
10293;SDS011;5192;50.328;7.610;2023-09-30T08:41:08;24.40;;;16.50;;
10293;SDS011;5192;50.328;7.610;2023-09-30T08:43:46;29.47;;;17.90;;
10293;SDS011;5192;50.328;7.610;2023-09-30T08:46:13;24.83;;;17.50;;
10293;SDS011;5192;50.328;7.610;2023-09-30T08:48:43;25.00;;;17.43;;
10293;SDS011;5192;50.328;7.610;2023-09-30T08:51:09;24.53;;;17.10;;
10293;SDS011;5192;50.328;7.610;2023-09-30T08:53:37;26.03;;;16.70;;
10293;SDS011;5192;50.328;7.610;2023-09-30T08:56:06;23.87;;;15.47;;
10293;SDS011;5192;50.328;7.610;2023-09-30T08:58:39;25.40;;;14.33;;
10293;SDS011;5192;50.328;7.610;2023-09-30T09:01:05;22.60;;;13.47;;
10293;SDS011;5192;50.328;7.610;2023-09-30T09:03:36;18.90;;;13.53;;
10293;SDS011;5192;50.328;7.610;2023-09-30T09:06:05;20.13;;;13.37;;
10293;SDS011;5192;50.328;7.610;2023-09-30T09:08:32;18.83;;;12.83;;
10293;SDS011;5192;50.328;7.610;2023-09-30T09:10:59;22.67;;;12.90;;
10293;SDS011;5192;50.328;7.610;2023-09-30T09:13:29;18.67;;;13.13;;
10293;SDS011;5192;50.328;7.610;2023-09-30T09:16:16;20.40;;;11.93;;
10293;SDS011;5192;50.328;7.610;2023-09-30T09:18:44;15.73;;;11.13;;
10293;SDS011;5192;50.328;7.610;2023-09-30T09:21:21;18.20;;;10.90;;
10293;SDS011;5192;50.328;7.610;2023-09-30T09:23:53;16.10;;;10.97;;
10293;SDS011;5192;50.328;7.610;2023-09-30T09:26:29;17.63;;;11.40;;
10293;SDS011;5192;50.328;7.610;2023-09-30T09:29:01;22.00;;;12.13;;
10293;SDS011;5192;50.328;7.610;2023-09-30T09:31:35;17.70;;;11.57;;
10293;SDS011;5192;50.328;7.610;2023-09-30T09:34:12;17.47;;;12.00;;
10293;SDS011;5192;50.328;7.610;2023-09-30T09:39:31;16.93;;;10.70;;
10293;SDS011;5192;50.328;7.610;2023-09-30T09:42:04;14.47;;;10.13;;
10293;SDS011;5192;50.328;7.610;2023-09-30T09:44:33;16.53;;;9.67;;
10293;SDS011;5192;50.328;7.610;2023-09-30T09:47:06;16.00;;;10.10;;
10293;SDS011;5192;50.328;7.610;2023-09-30T09:49:33;17.53;;;10.00;;
10293;SDS011;5192;50.328;7.610;2023-09-30T09:52:06;16.73;;;10.27;;
10293;SDS011;5192;50.328;7.610;2023-09-30T09:54:34;17.23;;;10.30;;
10293;SDS011;5192;50.328;7.610;2023-09-30T09:57:05;16.10;;;9.60;;
10293;SDS011;5192;50.328;7.610;2023-09-30T09:59:38;14.13;;;10.40;;
10293;SDS011;5192;50.328;7.610;2023-09-30T10:02:09;14.20;;;9.30;;
10293;SDS011;5192;50.328;7.610;2023-09-30T10:04:41;15.33;;;9.53;;
10293;SDS011;5192;50.328;7.610;2023-09-30T10:07:33;13.63;;;9.17;;
10293;SDS011;5192;50.328;7.610;2023-09-30T10:10:01;16.10;;;9.53;;
10293;SDS011;5192;50.328;7.610;2023-09-30T10:12:37;16.70;;;9.17;;
10293;SDS011;5192;50.328;7.610;2023-09-30T10:20:44;13.10;;;8.97;;
10293;SDS011;5192;50.328;7.610;2023-09-30T10:23:21;13.37;;;8.30;;
10293;SDS011;5192;50.328;7.610;2023-09-30T10:28:50;10.87;;;8.77;;
10293;SDS011;5192;50.328;7.610;2023-09-30T10:34:21;11.68;;;8.07;;
10293;SDS011;5192;50.328;7.610;2023-09-30T10:36:49;10.80;;;7.93;;
10293;SDS011;5192;50.328;7.610;2023-09-30T10:39:52;13.93;;;7.67;;
10293;SDS011;5192;50.328;7.610;2023-09-30T10:42:42;11.93;;;7.97;;
10293;SDS011;5192;50.328;7.610;2023-09-30T10:51:15;13.77;;;7.90;;
10293;SDS011;5192;50.328;7.610;2023-09-30T10:56:35;11.75;;;7.43;;
10293;SDS011;5192;50.328;7.610;2023-09-30T10:59:02;9.93;;;6.95;;
10293;SDS011;5192;50.328;7.610;2023-09-30T11:01:34;12.27;;;6.60;;
10293;SDS011;5192;50.328;7.610;2023-09-30T11:04:01;10.25;;;6.40;;
10293;SDS011;5192;50.328;7.610;2023-09-30T11:06:31;10.18;;;6.55;;
10293;SDS011;5192;50.328;7.610;2023-09-30T11:08:59;12.45;;;7.07;;
10293;SDS011;5192;50.328;7.610;2023-09-30T11:11:38;8.70;;;6.55;;
10293;SDS011;5192;50.328;7.610;2023-09-30T11:17:13;8.80;;;6.30;;
10293;SDS011;5192;50.328;7.610;2023-09-30T11:19:46;8.88;;;5.63;;
10293;SDS011;5192;50.328;7.610;2023-09-30T11:22:13;9.23;;;6.65;;
10293;SDS011;5192;50.328;7.610;2023-09-30T11:24:41;9.10;;;6.45;;
10293;SDS011;5192;50.328;7.610;2023-09-30T11:27:09;7.93;;;6.15;;
10293;SDS011;5192;50.328;7.610;2023-09-30T11:29:35;7.68;;;6.10;;
10293;SDS011;5192;50.328;7.610;2023-09-30T11:32:02;12.68;;;6.43;;
10293;SDS011;5192;50.328;7.610;2023-09-30T11:34:34;8.32;;;6.05;;
10293;SDS011;5192;50.328;7.610;2023-09-30T11:37:04;7.90;;;5.72;;
10293;SDS011;5192;50.328;7.610;2023-09-30T11:39:31;9.45;;;6.22;;
10293;SDS011;5192;50.328;7.610;2023-09-30T11:41:59;9.20;;;6.07;;
10293;SDS011;5192;50.328;7.610;2023-09-30T11:44:26;8.18;;;5.95;;
10293;SDS011;5192;50.328;7.610;2023-09-30T11:49:42;9.05;;;5.72;;
10293;SDS011;5192;50.328;7.610;2023-09-30T11:52:25;9.48;;;5.88;;
10293;SDS011;5192;50.328;7.610;2023-09-30T11:54:55;7.22;;;5.70;;
10293;SDS011;5192;50.328;7.610;2023-09-30T11:57:23;6.88;;;5.80;;
10293;SDS011;5192;50.328;7.610;2023-09-30T11:59:51;7.35;;;5.60;;
10293;SDS011;5192;50.328;7.610;2023-09-30T12:02:18;8.48;;;5.75;;
10293;SDS011;5192;50.328;7.610;2023-09-30T12:04:45;8.23;;;5.25;;
10293;SDS011;5192;50.328;7.610;2023-09-30T12:07:13;9.45;;;5.65;;
10293;SDS011;5192;50.328;7.610;2023-09-30T12:09:42;7.63;;;5.82;;
10293;SDS011;5192;50.328;7.610;2023-09-30T12:12:11;9.07;;;5.53;;
10293;SDS011;5192;50.328;7.610;2023-09-30T12:14:40;9.23;;;5.55;;
10293;SDS011;5192;50.328;7.610;2023-09-30T12:17:17;7.57;;;4.85;;
10293;SDS011;5192;50.328;7.610;2023-09-30T12:19:43;6.40;;;4.93;;
10293;SDS011;5192;50.328;7.610;2023-09-30T12:22:12;6.65;;;5.43;;
10293;SDS011;5192;50.328;7.610;2023-09-30T12:24:40;8.20;;;5.20;;
10293;SDS011;5192;50.328;7.610;2023-09-30T12:27:07;9.45;;;5.50;;
10293;SDS011;5192;50.328;7.610;2023-09-30T12:29:33;7.65;;;5.53;;
10293;SDS011;5192;50.328;7.610;2023-09-30T12:32:03;6.05;;;5.10;;
10293;SDS011;5192;50.328;7.610;2023-09-30T12:34:31;7.88;;;5.25;;
10293;SDS011;5192;50.328;7.610;2023-09-30T12:36:59;7.63;;;4.72;;
10293;SDS011;5192;50.328;7.610;2023-09-30T12:39:27;7.00;;;4.88;;
10293;SDS011;5192;50.328;7.610;2023-09-30T12:41:56;6.22;;;4.60;;
10293;SDS011;5192;50.328;7.610;2023-09-30T12:44:24;5.70;;;4.82;;
10293;SDS011;5192;50.328;7.610;2023-09-30T12:46:52;7.85;;;4.43;;
10293;SDS011;5192;50.328;7.610;2023-09-30T12:49:17;6.63;;;4.68;;
10293;SDS011;5192;50.328;7.610;2023-09-30T12:51:47;6.63;;;4.13;;
10293;SDS011;5192;50.328;7.610;2023-09-30T12:54:12;7.95;;;4.57;;
10293;SDS011;5192;50.328;7.610;2023-09-30T12:56:41;6.30;;;4.55;;
10293;SDS011;5192;50.328;7.610;2023-09-30T12:59:08;4.55;;;3.83;;
10293;SDS011;5192;50.328;7.610;2023-09-30T13:01:34;6.13;;;4.45;;
10293;SDS011;5192;50.328;7.610;2023-09-30T13:04:02;6.28;;;4.70;;
10293;SDS011;5192;50.328;7.610;2023-09-30T13:06:31;7.38;;;4.53;;
10293;SDS011;5192;50.328;7.610;2023-09-30T13:09:02;7.00;;;4.82;;
10293;SDS011;5192;50.328;7.610;2023-09-30T13:11:30;6.22;;;4.68;;
10293;SDS011;5192;50.328;7.610;2023-09-30T13:13:58;6.32;;;4.13;;
10293;SDS011;5192;50.328;7.610;2023-09-30T13:16:23;7.35;;;4.53;;
10293;SDS011;5192;50.328;7.610;2023-09-30T13:18:51;7.07;;;4.53;;
10293;SDS011;5192;50.328;7.610;2023-09-30T13:21:18;6.05;;;4.18;;
10293;SDS011;5192;50.328;7.610;2023-09-30T13:23:45;5.68;;;4.35;;
10293;SDS011;5192;50.328;7.610;2023-09-30T13:26:12;6.60;;;4.43;;
10293;SDS011;5192;50.328;7.610;2023-09-30T13:28:39;7.88;;;3.80;;
10293;SDS011;5192;50.328;7.610;2023-09-30T13:31:05;5.85;;;4.53;;
10293;SDS011;5192;50.328;7.610;2023-09-30T13:33:34;6.07;;;4.50;;
10293;SDS011;5192;50.328;7.610;2023-09-30T13:36:00;5.93;;;4.35;;
10293;SDS011;5192;50.328;7.610;2023-09-30T13:38:29;5.40;;;4.50;;
10293;SDS011;5192;50.328;7.610;2023-09-30T13:40:54;5.30;;;4.40;;
10293;SDS011;5192;50.328;7.610;2023-09-30T13:43:20;5.07;;;4.32;;
10293;SDS011;5192;50.328;7.610;2023-09-30T13:45:47;5.32;;;3.92;;
10293;SDS011;5192;50.328;7.610;2023-09-30T13:48:15;5.78;;;3.92;;
10293;SDS011;5192;50.328;7.610;2023-09-30T13:50:41;4.93;;;4.00;;
10293;SDS011;5192;50.328;7.610;2023-09-30T13:53:09;7.63;;;4.47;;
10293;SDS011;5192;50.328;7.610;2023-09-30T13:55:39;6.40;;;4.43;;
10293;SDS011;5192;50.328;7.610;2023-09-30T13:58:06;6.97;;;4.32;;
10293;SDS011;5192;50.328;7.610;2023-09-30T14:00:33;4.95;;;4.15;;
10293;SDS011;5192;50.328;7.610;2023-09-30T14:03:00;6.78;;;4.10;;
10293;SDS011;5192;50.328;7.610;2023-09-30T14:05:26;5.95;;;3.85;;
10293;SDS011;5192;50.328;7.610;2023-09-30T14:07:52;5.85;;;4.18;;
10293;SDS011;5192;50.328;7.610;2023-09-30T14:10:20;6.38;;;4.28;;
10293;SDS011;5192;50.328;7.610;2023-09-30T14:12:49;6.70;;;4.32;;
10293;SDS011;5192;50.328;7.610;2023-09-30T14:15:17;5.95;;;4.10;;
10293;SDS011;5192;50.328;7.610;2023-09-30T14:17:44;6.05;;;4.47;;
10293;SDS011;5192;50.328;7.610;2023-09-30T14:20:11;5.65;;;3.97;;
10293;SDS011;5192;50.328;7.610;2023-09-30T14:22:39;6.47;;;4.38;;
10293;SDS011;5192;50.328;7.610;2023-09-30T14:25:05;5.53;;;4.30;;
10293;SDS011;5192;50.328;7.610;2023-09-30T14:27:31;5.95;;;4.30;;
10293;SDS011;5192;50.328;7.610;2023-09-30T14:30:00;5.13;;;3.95;;
10293;SDS011;5192;50.328;7.610;2023-09-30T14:32:28;5.55;;;3.75;;
10293;SDS011;5192;50.328;7.610;2023-09-30T14:34:53;6.03;;;4.32;;
10293;SDS011;5192;50.328;7.610;2023-09-30T14:37:20;5.20;;;4.00;;
10293;SDS011;5192;50.328;7.610;2023-09-30T14:39:45;6.10;;;4.50;;
10293;SDS011;5192;50.328;7.610;2023-09-30T14:42:13;5.20;;;4.18;;
10293;SDS011;5192;50.328;7.610;2023-09-30T14:44:39;7.07;;;4.25;;
10293;SDS011;5192;50.328;7.610;2023-09-30T14:47:09;5.30;;;3.70;;
10293;SDS011;5192;50.328;7.610;2023-09-30T14:49:34;7.22;;;4.68;;
10293;SDS011;5192;50.328;7.610;2023-09-30T14:52:02;5.05;;;4.20;;
10293;SDS011;5192;50.328;7.610;2023-09-30T14:54:30;7.07;;;4.57;;
10293;SDS011;5192;50.328;7.610;2023-09-30T14:56:58;5.43;;;4.28;;
10293;SDS011;5192;50.328;7.610;2023-09-30T14:59:24;5.25;;;3.72;;
10293;SDS011;5192;50.328;7.610;2023-09-30T15:01:49;7.85;;;4.75;;
10293;SDS011;5192;50.328;7.610;2023-09-30T15:04:17;5.68;;;4.28;;
10293;SDS011;5192;50.328;7.610;2023-09-30T15:06:46;7.25;;;5.55;;
10293;SDS011;5192;50.328;7.610;2023-09-30T15:09:11;7.10;;;5.30;;
10293;SDS011;5192;50.328;7.610;2023-09-30T15:11:37;5.55;;;4.50;;
10293;SDS011;5192;50.328;7.610;2023-09-30T15:14:03;7.47;;;4.13;;
10293;SDS011;5192;50.328;7.610;2023-09-30T15:16:32;6.05;;;3.90;;
10293;SDS011;5192;50.328;7.610;2023-09-30T15:19:00;5.03;;;3.97;;
10293;SDS011;5192;50.328;7.610;2023-09-30T15:21:27;5.68;;;4.43;;